AAL35 KLAX-KPHX
Flight info
| Callsign | AAL35 |
|---|---|
| Flight time | N/A |
| Altitude | 31000 |
| Route | DOTSS2 CNERY BLH HYDRR1 |
| Aircraft | A388/J-SADE2E3FGHIJ3J4J5M1RWXY/LB1D1 |
Departure
| Time | 2026-05-06 06:24 |
|---|---|
| Airport | Los Angeles International Airport (KLAX) |
Arrival
| Time | N/A |
|---|---|
| Airport | Phoenix Sky Harbor International Airport (KPHX) |
| Time | Latitude | Longitude | Altitude | Speed | Heading |
|---|---|---|---|---|---|
| 2026-05-06 05:54 | 33.93947 | -118.40686 | 126 ft | 0 kts | 7° |
| 2026-05-06 06:09 | 33.93936 | -118.40689 | 126 ft | 2 kts | 30° |
| 2026-05-06 06:09 | 33.93925 | -118.40699 | 126 ft | 2 kts | 53° |
| 2026-05-06 06:09 | 33.93921 | -118.40707 | 126 ft | 2 kts | 68° |
| 2026-05-06 06:09 | 33.93919 | -118.40717 | 126 ft | 2 kts | 83° |
| 2026-05-06 06:10 | 33.93918 | -118.40724 | 127 ft | 2 kts | 94° |
| 2026-05-06 06:10 | 33.93919 | -118.40731 | 127 ft | 2 kts | 105° |
| 2026-05-06 06:10 | 33.93920 | -118.40736 | 127 ft | 2 kts | 112° |
| 2026-05-06 06:11 | 33.93925 | -118.40746 | 127 ft | 2 kts | 131° |
| 2026-05-06 06:11 | 33.93927 | -118.40749 | 127 ft | 2 kts | 137° |
| 2026-05-06 06:11 | 33.93934 | -118.40756 | 127 ft | 2 kts | 152° |
| 2026-05-06 06:11 | 33.93943 | -118.40760 | 127 ft | 0 kts | 170° |
| 2026-05-06 06:12 | 33.93950 | -118.40761 | 127 ft | 0 kts | 173° |
| 2026-05-06 06:12 | 33.93951 | -118.40761 | 127 ft | 0 kts | 173° |
| 2026-05-06 06:12 | 33.93950 | -118.40761 | 127 ft | 0 kts | 173° |
| 2026-05-06 06:15 | 33.93950 | -118.40760 | 127 ft | 0 kts | 174° |
| 2026-05-06 06:15 | 33.93951 | -118.40760 | 127 ft | 0 kts | 174° |
| 2026-05-06 06:16 | 33.93950 | -118.40760 | 127 ft | 0 kts | 175° |
| 2026-05-06 06:17 | 33.93946 | -118.40760 | 127 ft | 3 kts | 173° |
| 2026-05-06 06:18 | 33.93904 | -118.40745 | 127 ft | 6 kts | 162° |
| 2026-05-06 06:18 | 33.93897 | -118.40743 | 127 ft | 6 kts | 162° |
| 2026-05-06 06:18 | 33.93861 | -118.40728 | 127 ft | 6 kts | 156° |
| 2026-05-06 06:18 | 33.93827 | -118.40694 | 127 ft | 6 kts | 117° |
| 2026-05-06 06:19 | 33.93818 | -118.40627 | 126 ft | 11 kts | 88° |
| 2026-05-06 06:19 | 33.93828 | -118.40506 | 124 ft | 18 kts | 83° |
| 2026-05-06 06:19 | 33.93846 | -118.40329 | 121 ft | 23 kts | 82° |
| 2026-05-06 06:19 | 33.93869 | -118.40115 | 120 ft | 28 kts | 83° |
| 2026-05-06 06:20 | 33.93896 | -118.39862 | 115 ft | 33 kts | 83° |
| 2026-05-06 06:20 | 33.93928 | -118.39584 | 111 ft | 34 kts | 83° |
| 2026-05-06 06:20 | 33.93957 | -118.39283 | 108 ft | 37 kts | 84° |
| 2026-05-06 06:20 | 33.93991 | -118.38948 | 104 ft | 43 kts | 83° |
| 2026-05-06 06:21 | 33.94028 | -118.38573 | 104 ft | 47 kts | 83° |
| 2026-05-06 06:21 | 33.94071 | -118.38178 | 101 ft | 42 kts | 83° |
| 2026-05-06 06:21 | 33.94054 | -118.38021 | 101 ft | 0 kts | 160° |
| 2026-05-06 06:22 | 33.94053 | -118.38020 | 101 ft | 1 kts | 160° |
| 2026-05-06 06:23 | 33.93990 | -118.38068 | 101 ft | 31 kts | 251° |
| 2026-05-06 06:23 | 33.93929 | -118.38526 | 104 ft | 78 kts | 263° |
| 2026-05-06 06:23 | 33.93843 | -118.39335 | 108 ft | 119 kts | 263° |
| 2026-05-06 06:23 | 33.93729 | -118.40472 | 124 ft | 152 kts | 263° |
| 2026-05-06 06:24 | 33.93592 | -118.41856 | 136 ft | 177 kts | 263° |
| 2026-05-06 06:24 | 33.93449 | -118.43356 | 303 ft | 185 kts | 261° |
| 2026-05-06 06:24 | 33.93166 | -118.44908 | 584 ft | 193 kts | 253° |
| 2026-05-06 06:24 | 33.92672 | -118.46440 | 779 ft | 206 kts | 242° |
| 2026-05-06 06:25 | 33.91856 | -118.47915 | 1043 ft | 215 kts | 233° |
| 2026-05-06 06:25 | 33.90903 | -118.49384 | 1226 ft | 230 kts | 230° |
| 2026-05-06 06:25 | 33.88728 | -118.52421 | 1922 ft | 246 kts | 229° |
| 2026-05-06 06:26 | 33.87596 | -118.53989 | 2241 ft | 257 kts | 227° |
| 2026-05-06 06:26 | 33.86174 | -118.55380 | 2505 ft | 267 kts | 205° |
| 2026-05-06 06:26 | 33.84393 | -118.55905 | 3027 ft | 266 kts | 179° |
| 2026-05-06 06:26 | 33.82549 | -118.55570 | 3522 ft | 267 kts | 166° |
| 2026-05-06 06:27 | 33.80750 | -118.55049 | 3983 ft | 270 kts | 166° |
| 2026-05-06 06:27 | 33.78892 | -118.54542 | 4425 ft | 274 kts | 167° |
| 2026-05-06 06:27 | 33.77029 | -118.54049 | 4964 ft | 274 kts | 167° |
| 2026-05-06 06:27 | 33.75155 | -118.53554 | 5443 ft | 276 kts | 167° |
| 2026-05-06 06:28 | 33.73283 | -118.53055 | 5912 ft | 278 kts | 167° |
| 2026-05-06 06:28 | 33.71406 | -118.52378 | 6394 ft | 279 kts | 155° |
| 2026-05-06 06:28 | 33.70165 | -118.51480 | 6706 ft | 281 kts | 136° |
| 2026-05-06 06:28 | 33.69135 | -118.49939 | 7110 ft | 278 kts | 115° |
| 2026-05-06 06:29 | 33.68438 | -118.47791 | 7636 ft | 277 kts | 106° |
| 2026-05-06 06:29 | 33.67820 | -118.45599 | 8094 ft | 280 kts | 107° |
| 2026-05-06 06:29 | 33.67176 | -118.43421 | 8633 ft | 280 kts | 107° |
| 2026-05-06 06:29 | 33.66504 | -118.41190 | 9139 ft | 282 kts | 107° |
| 2026-05-06 06:30 | 33.65843 | -118.38986 | 9663 ft | 283 kts | 107° |
| 2026-05-06 06:30 | 33.65186 | -118.36787 | 10141 ft | 286 kts | 107° |
| 2026-05-06 06:30 | 33.64573 | -118.34544 | 10263 ft | 300 kts | 100° |
| 2026-05-06 06:30 | 33.64302 | -118.32005 | 10529 ft | 308 kts | 89° |
| 2026-05-06 06:31 | 33.64301 | -118.29377 | 10648 ft | 323 kts | 86° |
| 2026-05-06 06:31 | 33.64372 | -118.26638 | 10859 ft | 336 kts | 86° |
| 2026-05-06 06:31 | 33.64433 | -118.23889 | 11008 ft | 350 kts | 87° |
| 2026-05-06 06:31 | 33.64465 | -118.21394 | 11074 ft | 364 kts | 87° |
| 2026-05-06 06:32 | 33.64475 | -118.19942 | 11187 ft | 369 kts | 88° |
| 2026-05-06 06:32 | 33.64483 | -118.17433 | 11276 ft | 380 kts | 88° |
| 2026-05-06 06:33 | 33.64482 | -118.14234 | 11754 ft | 383 kts | 88° |
| 2026-05-06 06:33 | 33.64477 | -118.11164 | 12196 ft | 387 kts | 88° |
| 2026-05-06 06:33 | 33.64470 | -118.07836 | 12742 ft | 389 kts | 88° |
| 2026-05-06 06:33 | 33.64465 | -118.04588 | 13224 ft | 393 kts | 88° |
| 2026-05-06 06:34 | 33.64459 | -118.01309 | 13749 ft | 395 kts | 87° |
| 2026-05-06 06:34 | 33.64453 | -117.98016 | 14256 ft | 398 kts | 87° |
| 2026-05-06 06:34 | 33.64448 | -117.94699 | 14812 ft | 400 kts | 88° |
| 2026-05-06 06:34 | 33.64441 | -117.91325 | 15386 ft | 402 kts | 87° |
| 2026-05-06 06:35 | 33.64433 | -117.87985 | 15857 ft | 406 kts | 87° |
| 2026-05-06 06:35 | 33.64404 | -117.84594 | 16364 ft | 410 kts | 89° |
| 2026-05-06 06:35 | 33.64247 | -117.81149 | 16899 ft | 413 kts | 92° |
| 2026-05-06 06:35 | 33.63842 | -117.77718 | 17380 ft | 418 kts | 98° |
| 2026-05-06 06:36 | 33.63199 | -117.74294 | 17863 ft | 422 kts | 101° |
| 2026-05-06 06:36 | 33.62409 | -117.70872 | 18319 ft | 426 kts | 103° |
| 2026-05-06 06:36 | 33.61560 | -117.67497 | 18883 ft | 427 kts | 104° |
| 2026-05-06 06:36 | 33.60681 | -117.64079 | 19260 ft | 432 kts | 104° |
| 2026-05-06 06:37 | 33.59800 | -117.60643 | 19790 ft | 433 kts | 103° |
| 2026-05-06 06:37 | 33.58923 | -117.57179 | 20289 ft | 434 kts | 103° |
| 2026-05-06 06:37 | 33.58052 | -117.53718 | 20726 ft | 436 kts | 103° |
| 2026-05-06 06:37 | 33.57183 | -117.50241 | 21207 ft | 438 kts | 103° |
| 2026-05-06 06:38 | 33.56313 | -117.46751 | 21616 ft | 441 kts | 103° |
| 2026-05-06 06:38 | 33.55434 | -117.43221 | 22092 ft | 441 kts | 103° |
| 2026-05-06 06:38 | 33.54559 | -117.39712 | 22493 ft | 444 kts | 103° |
| 2026-05-06 06:38 | 33.53673 | -117.36165 | 22969 ft | 444 kts | 103° |
| 2026-05-06 06:39 | 33.52794 | -117.32638 | 23242 ft | 449 kts | 103° |
| 2026-05-06 06:39 | 33.51927 | -117.29047 | 23713 ft | 448 kts | 101° |
| 2026-05-06 06:39 | 33.51194 | -117.25430 | 23956 ft | 451 kts | 98° |
| 2026-05-06 06:39 | 33.50700 | -117.21720 | 24324 ft | 450 kts | 93° |
| 2026-05-06 06:40 | 33.50430 | -117.17971 | 24518 ft | 454 kts | 90° |
| 2026-05-06 06:40 | 33.50296 | -117.14192 | 24896 ft | 455 kts | 89° |
| 2026-05-06 06:40 | 33.50224 | -117.10398 | 25139 ft | 458 kts | 88° |
| 2026-05-06 06:40 | 33.50182 | -117.06619 | 25471 ft | 460 kts | 88° |
| 2026-05-06 06:41 | 33.50148 | -117.02770 | 25704 ft | 463 kts | 88° |
| 2026-05-06 06:41 | 33.50110 | -116.98905 | 26139 ft | 462 kts | 87° |
| 2026-05-06 06:41 | 33.50069 | -116.95105 | 26608 ft | 459 kts | 87° |
| 2026-05-06 06:41 | 33.50021 | -116.91319 | 26940 ft | 460 kts | 87° |
| 2026-05-06 06:42 | 33.49971 | -116.87461 | 27118 ft | 464 kts | 87° |
| 2026-05-06 06:42 | 33.49917 | -116.83597 | 27434 ft | 464 kts | 87° |
| 2026-05-06 06:42 | 33.49860 | -116.79772 | 27939 ft | 460 kts | 87° |
| 2026-05-06 06:42 | 33.49800 | -116.75959 | 28193 ft | 462 kts | 86° |
| 2026-05-06 06:43 | 33.49739 | -116.72076 | 28442 ft | 463 kts | 86° |
| 2026-05-06 06:43 | 33.49675 | -116.68190 | 28706 ft | 464 kts | 86° |
| 2026-05-06 06:43 | 33.49604 | -116.64355 | 29103 ft | 461 kts | 86° |
| 2026-05-06 06:43 | 33.49531 | -116.60511 | 29470 ft | 459 kts | 86° |
| 2026-05-06 06:44 | 33.49461 | -116.56696 | 29864 ft | 456 kts | 86° |
| 2026-05-06 06:44 | 33.49394 | -116.52948 | 30085 ft | 457 kts | 85° |
| 2026-05-06 06:44 | 33.49329 | -116.49122 | 30113 ft | 463 kts | 86° |
| 2026-05-06 06:45 | 33.49191 | -116.41310 | 30355 ft | 469 kts | 86° |
| 2026-05-06 06:45 | 33.49126 | -116.37479 | 30666 ft | 467 kts | 86° |
| 2026-05-06 06:45 | 33.49067 | -116.33590 | 31026 ft | 462 kts | 87° |
| 2026-05-06 06:46 | 33.48961 | -116.25833 | 31015 ft | 471 kts | 87° |
| 2026-05-06 06:46 | 33.48843 | -116.17945 | 31014 ft | 478 kts | 87° |
| 2026-05-06 06:47 | 33.48723 | -116.09969 | 30997 ft | 474 kts | 86° |
| 2026-05-06 06:47 | 33.49214 | -116.02110 | 30987 ft | 472 kts | 74° |
| 2026-05-06 06:48 | 33.50966 | -115.94569 | 30979 ft | 467 kts | 67° |
| 2026-05-06 06:48 | 33.53146 | -115.87284 | 30980 ft | 470 kts | 65° |
| 2026-05-06 06:49 | 33.54361 | -115.83351 | 30984 ft | 467 kts | 65° |
| 2026-05-06 06:49 | 33.56539 | -115.76148 | 30992 ft | 450 kts | 66° |
| 2026-05-06 06:50 | 33.57206 | -115.73897 | 30988 ft | 446 kts | 66° |
| 2026-05-06 06:50 | 33.57967 | -115.71301 | 31552 ft | 414 kts | 66° |
| 2026-05-06 06:50 | 33.58850 | -115.68199 | 32274 ft | 377 kts | 67° |
| 2026-05-06 06:50 | 33.59663 | -115.65245 | 31635 ft | 386 kts | 68° |
| 2026-05-06 06:51 | 33.60518 | -115.62121 | 30003 ft | 418 kts | 64° |
| 2026-05-06 06:51 | 33.61210 | -115.60053 | 29147 ft | 426 kts | 61° |